Ride Results

Biggenden 80 Km (23-09-2012)
Ride distance: 80.0 km

Outcomes - Biggenden 80 Km (23-09-2012)
Division No. of Entries Retired / DNE Completed Withdrawn Ineligible V/O Percentage Completed
HW 10 - 8 1 - 1 80.00%
MW 17 - 17 - - - 100.00%
LW 14 - 13 - - 1 92.86%
JN 9 - 7 - - 2 77.78%
Totals 50 - 45 1 - 4 90.00%
Results - Biggenden 80 Km (23-09-2012)
No. Rider Horse Place Time Leg Speeds Total
Km/Hr
H/R bpm
Heavyweight
180 Michael Shaw Bellabin 1 (BC) 4:57:00 16.6, 15.6 16.16 41, 49, 53 (Avg:51)
148 Gregg Fields Dunwingeri Shahman 2 4:59:01 16.4, 15.6 16.05 36, 44, 48 (Avg:46)
163 Jaime Mansbridge Shannonwood Ezar 3 6:37:00 14.0, 10.6 12.09 29, 42, 48 (Avg:45)
164 Greg Garred Shannonwood Sub 4 6:37:01 14.0, 10.6 12.09 35, 42, 54 (Avg:48)
159 Rod Field Brookleigh Louise 5 6:53:02 11.9, 11.2 11.62 35, 40, 59 (Avg:49)
172 Robyn O'Brien Ronekzus Honey 6 8:22:00 11.1, 8.3 9.56 33, 37, 44 (Avg:40)
151 Mark Ruge Bindi 7 8:22:01 11.1, 8.3 9.56 49, 55, 57 (Avg:56)
173 Steve Swan Longrun Conaar 8 9:38:01 10.0, 7.0 8.30 41, 45, 52 (Avg:48)
178 Sue Clark Diamond Dew Argyle Widthdrawn L1 0:00:00 - - 42, 45 (Avg:45)
135 Chris Nichols Bashan Memphis Lame L1 0:00:00 16.7 - 42, 46 (Avg:46)
Middleweight
150 Jacinta Stubbings Ffire Storm 1 4:45:00 16.7, 16.9 16.84 43, 47, 54 (Avg:50)
186 Caroline Fitzgerald Lanamere Kudos 2 (BC) 4:48:00 16.8, 16.4 16.67 31, 43, 45 (Avg:44)
187 Angela Head Lanamere Nightmusic 2 4:48:00 16.8, 16.4 16.67 36, 42, 56 (Avg:49)
170 Ken Moir Cameo Helmzman 4 4:54:00 16.7, 15.9 16.33 35, 47, 54 (Avg:50)
169 Lynne Drinkwater Midu Magella 5 4:54:01 16.7, 15.8 16.33 29, 39, 47 (Avg:43)
179 Errol Watt Yul-Arai Hassan 6 5:05:00 17.0, 14.6 15.74 39, 44, 59 (Avg:51)
167 Akhmed Pshunov Matta Mia Su Al 7 6:01:00 13.3, 13.2 13.30 36, 44, 54 (Avg:49)
154 Angela Waldock Gundabah Fair Lady 8 6:08:00 13.2, 12.8 13.04 33, 45, 53 (Avg:49)
160 Kellie Hart Noname 9 6:24:00 14.2, 11.1 12.50 35, 44, 47 (Avg:45)
130 Camila Champagne-Bargenquast Miva Majnoun 10 6:36:05 12.6, 11.6 12.12 33, 46, 48 (Avg:47)
176 Timothy Sutcliffe My Cadet 11 6:37:03 14.0, 10.6 12.09 32, 43, 52 (Avg:47)
158 Caro de Boer Brookleigh Shaklo 12 6:53:01 11.9, 11.2 11.62 39, 40, 45 (Avg:42)
183 Bridget Nottle Veronica te 13 7:40:00 11.9, 9.2 10.43 34, 39, 48 (Avg:43)
146 Joy Craig Countess Crysda 14 8:27:00 10.6, 8.5 9.47 38, 48, 50 (Avg:49)
162 Ruth Dixon El Romero 15 8:28:01 10.3, 8.7 9.45 33, 43, 49 (Avg:46)
161 Kathleen Roberts Fortaleza Loki 16 9:38:00 10.0, 7.0 8.30 41, 42, 44 (Avg:43)
171 Jackie Swan Longrun Drifter 17 9:38:02 10.0, 7.0 8.30 39, 45, 46 (Avg:45)
Lightweight
184 Bobbi Lochtenberg Matta Mia Arad 1 4:49:00 17.0, 16.2 16.61 38, 47, 49 (Avg:48)
185 Janelle Taylor Glenewan Scout 1 (BC) 4:49:00 11.9, 27.2 16.61 32, 39, 45 (Avg:42)
145 Karen Fields Cameo Inniskerry 3 4:59:00 16.4, 15.6 16.05 31, 46, 50 (Avg:48)
157 Leigh Ann Sample Brookleigh Commander 4 5:36:00 15.6, 13.1 14.29 36, 41, 43 (Avg:42)
143 Kate Appleby Chaswyck The Maverick 5 6:03:00 15.6, 11.4 13.22 37, 41, 44 (Avg:42)
182 Xanthe Webb Thee Omar 6 6:35:00 13.2, 11.2 12.15 41, 51, 57 (Avg:54)
174 Amanda Powell Summit Park Raz 7 6:36:06 12.9, 11.3 12.12 36, 37, 44 (Avg:40)
188 Sonya Ryan Kholonial Amigo 8 6:41:00 14.3, 10.2 11.97 53, 44, 49 (Avg:46)
181 Sally Genninges Toad 9 6:43:00 13.1, 10.8 11.91 40, 40, 45 (Avg:42)
153 Kelsey Irvine Brookleigh Explorer 10 6:51:00 12.2, 11.1 11.68 42, 42, 51 (Avg:46)
155 Malin Olsson Gheerulla Quartz 11 6:53:00 11.9, 11.2 11.62 49, 43, 48 (Avg:45)
165 Kaylea Maher Far Q Deutz 12 7:41:00 11.1, 9.7 10.41 35, 42, 51 (Avg:46)
149 Daniele Von Elsner Omah 13 8:28:00 10.3, 8.7 9.45 39, 41, 55 (Avg:48)
175 Christine Christie Duke Heart Rate L2 0:00:00 16.7, 10.2 - 41, 55, 70 (Avg:62)
Junior
141 Mel Simpson Storm 1 (BC) 4:45:00 16.7, 16.9 16.84 38, 41, 46 (Avg:43)
142 Christina Simpson Agape Evezra 1 4:45:00 16.7, 16.9 16.84 46, 42, 51 (Avg:46)
144 Jess Dakin Caramea Morocco 3 6:03:02 15.6, 11.4 13.22 42, 46, 48 (Avg:47)
152 Jayden Morcom Bellarine Passiona 4 6:08:01 13.2, 12.8 13.04 38, 39, 45 (Avg:42)
177 Gemma Sutcliffe Talbarear Rapier 5 6:37:04 14.0, 10.6 12.09 31, 44, 53 (Avg:48)
168 Tayla Hadzi Sample Park Zachary 6 6:41:03 13.3, 10.8 11.97 37, 43, 51 (Avg:47)
147 Joseph Craig Kynnum Park Winter Wind 7 8:27:00 10.6, 8.5 9.47 33, 43, 47 (Avg:45)
166 Matilda Hose Rose Gum Markarah Heart Rate L2 0:00:00 17.0, 16.6 - 42, 52, 64 (Avg:58)
156 Sarah Huddleston Kidaman Ashquar Lame L2 0:00:00 12.2, 11.1 - 41, 40, 49 (Avg:44)